Time;durP1;ratioP1;P1;durP2;ratioP2;P2;SDS_P1;SDS_P2;PMS_P1;PMS_P2;Temp;Humidity;BMP_temperature;BMP_pressure;BME280_temperature;BME280_humidity;BME280_pressure;Samples;Min_cycle;Max_cycle;Signal;HPM_P1;HPM_P2
2022/12/09 00:01:05;;;;;;;10.60;6.03;;;;;;;;;;5109050;28;20141;-73
2022/12/09 00:03:30;;;;;;;9.47;6.23;;;;;;;;;;5093997;28;20012;-69
2022/12/09 00:05:55;;;;;;;15.80;6.67;;;;;;;;;;5093970;28;20016;-71
2022/12/09 00:08:21;;;;;;;10.43;6.03;;;;;;;;;;5108739;28;20028;-72
2022/12/09 00:10:46;;;;;;;9.60;5.90;;;;;;;;;;5094042;28;20020;-73
2022/12/09 00:13:11;;;;;;;10.37;6.27;;;;;;;;;;5109187;28;20028;-72
2022/12/09 00:15:41;;;;;;;13.00;6.37;;;;;;;;;;5093718;28;20392;-73
2022/12/09 00:18:06;;;;;;;9.37;5.53;;;;;;;;;;5093667;28;20020;-72
2022/12/09 00:20:31;;;;;;;13.03;5.87;;;;;;;;;;5093501;28;20323;-71
2022/12/09 00:22:57;;;;;;;9.97;6.27;;;;;;;;;;5109077;28;20392;-71
2022/12/09 00:25:22;;;;;;;15.27;7.30;;;;;;;;;;5109378;28;20384;-72
2022/12/09 00:27:48;;;;;;;10.57;6.30;;;;;;;;;;5173498;22;20615;-70
2022/12/09 00:30:13;;;;;;;8.97;5.20;;;;;;;;;;5113145;28;20467;-70
2022/12/09 00:32:38;;;;;;;9.90;6.67;;;;;;;;;;5114760;28;20018;-72
2022/12/09 00:35:04;;;;;;;11.10;5.77;;;;;;;;;;5114551;28;20020;-70
2022/12/09 00:37:29;;;;;;;7.37;4.97;;;;;;;;;;5113284;28;20089;-71
2022/12/09 00:39:55;;;;;;;6.70;4.67;;;;;;;;;;5114829;28;20022;-70
2022/12/09 00:42:20;;;;;;;7.40;4.60;;;;;;;;;;5113246;28;20390;-70
2022/12/09 00:44:46;;;;;;;7.37;4.87;;;;;;;;;;5113161;28;20042;-69
2022/12/09 00:47:12;;;;;;;9.60;5.33;;;;;;;;;;5114403;28;20493;-71
2022/12/09 00:49:37;;;;;;;7.67;5.23;;;;;;;;;;5112853;28;20024;-71
2022/12/09 00:52:02;;;;;;;9.83;5.33;;;;;;;;;;5112700;28;20524;-71
2022/12/09 00:54:28;;;;;;;15.63;5.03;;;;;;;;;;5114209;28;20378;-71
2022/12/09 00:56:55;;;;;;;9.23;4.77;;;;;;;;;;5112771;28;20072;-71
2022/12/09 00:59:21;;;;;;;10.97;5.73;;;;;;;;;;5114469;28;20060;-70
2022/12/09 01:01:46;;;;;;;7.93;5.70;;;;;;;;;;5114423;28;20107;-70
2022/12/09 01:04:12;;;;;;;12.60;6.33;;;;;;;;;;5113044;28;20024;-72
2022/12/09 01:06:38;;;;;;;8.53;5.47;;;;;;;;;;5114202;28;20409;-70
2022/12/09 01:09:03;;;;;;;9.90;4.80;;;;;;;;;;5112371;28;20019;-70
2022/12/09 01:11:29;;;;;;;7.43;4.53;;;;;;;;;;5114121;28;20032;-71
2022/12/09 01:13:57;;;;;;;8.03;4.57;;;;;;;;;;5113898;28;20090;-71
2022/12/09 01:16:24;;;;;;;8.63;3.60;;;;;;;;;;5112799;28;20131;-71
2022/12/09 01:18:49;;;;;;;6.40;3.67;;;;;;;;;;5112922;28;20016;-72
2022/12/09 01:21:16;;;;;;;10.13;3.97;;;;;;;;;;5113989;28;20019;-71
2022/12/09 01:23:41;;;;;;;9.57;4.50;;;;;;;;;;5114400;28;20038;-73
2022/12/09 01:26:07;;;;;;;7.37;3.40;;;;;;;;;;5117676;28;20459;-74
2022/12/09 01:28:33;;;;;;;8.33;3.93;;;;;;;;;;5118745;28;20047;-71
2022/12/09 01:31:19;;;;;;;5.07;2.90;;;;;;;;;;5122988;22;20352;-71
2022/12/09 01:33:46;;;;;;;4.80;2.90;;;;;;;;;;5111638;28;20406;-70
2022/12/09 01:36:15;;;;;;;6.73;3.07;;;;;;;;;;5112792;28;20039;-71
2022/12/09 01:38:41;;;;;;;6.00;3.07;;;;;;;;;;5112717;28;20019;-71
2022/12/09 01:41:06;;;;;;;8.67;3.80;;;;;;;;;;5111991;28;20026;-71
2022/12/09 01:43:32;;;;;;;6.77;3.83;;;;;;;;;;5113056;28;20012;-71
2022/12/09 01:45:57;;;;;;;8.77;3.87;;;;;;;;;;5114209;28;20047;-70
2022/12/09 01:48:25;;;;;;;5.63;3.03;;;;;;;;;;5112842;28;20383;-71
2022/12/09 01:50:56;;;;;;;5.60;3.40;;;;;;;;;;5114770;28;20023;-70
2022/12/09 01:53:26;;;;;;;4.80;3.30;;;;;;;;;;5113920;28;20022;-70
2022/12/09 01:55:54;;;;;;;7.37;4.37;;;;;;;;;;5113102;28;20027;-70
2022/12/09 01:58:20;;;;;;;4.33;2.90;;;;;;;;;;5114201;28;20019;-72
2022/12/09 02:00:46;;;;;;;4.63;3.07;;;;;;;;;;5116957;28;20024;-69
2022/12/09 02:03:12;;;;;;;7.83;3.10;;;;;;;;;;5117720;28;20394;-70
2022/12/09 02:05:37;;;;;;;10.00;3.77;;;;;;;;;;5112833;28;20030;-70
2022/12/09 02:08:05;;;;;;;10.47;3.60;;;;;;;;;;5112869;28;20555;-72
2022/12/09 02:10:31;;;;;;;4.93;2.77;;;;;;;;;;5112437;28;20055;-70
2022/12/09 02:13:08;;;;;;;7.13;3.57;;;;;;;;;;5111600;28;20463;-72
2022/12/09 02:15:47;;;;;;;8.33;2.87;;;;;;;;;;5111658;28;20036;-72
2022/12/09 02:18:19;;;;;;;4.93;3.17;;;;;;;;;;5112798;28;20020;-70
2022/12/09 02:20:47;;;;;;;6.43;3.00;;;;;;;;;;5113232;28;20047;-70
2022/12/09 02:23:13;;;;;;;4.07;2.83;;;;;;;;;;5112906;28;20024;-72
2022/12/09 02:25:56;;;;;;;5.30;3.40;;;;;;;;;;5111597;28;20016;-71
2022/12/09 02:28:21;;;;;;;6.53;3.10;;;;;;;;;;5113460;28;20015;-71
2022/12/09 02:30:46;;;;;;;5.67;3.10;;;;;;;;;;5112806;28;20143;-71
2022/12/09 02:33:34;;;;;;;5.50;3.20;;;;;;;;;;5116682;28;20073;-71
2022/12/09 02:36:01;;;;;;;7.73;3.50;;;;;;;;;;5116579;28;20116;-70
2022/12/09 02:38:29;;;;;;;6.63;3.40;;;;;;;;;;5115487;28;20027;-71
2022/12/09 02:41:05;;;;;;;4.80;3.33;;;;;;;;;;5115820;28;20015;-70
2022/12/09 02:43:34;;;;;;;11.53;3.80;;;;;;;;;;5117074;27;20030;-71
2022/12/09 02:46:00;;;;;;;6.90;4.20;;;;;;;;;;5117308;28;20031;-70
2022/12/09 02:48:31;;;;;;;10.23;4.60;;;;;;;;;;5115000;28;20019;-70
2022/12/09 02:50:58;;;;;;;7.93;3.80;;;;;;;;;;5115084;28;20069;-70
2022/12/09 02:53:25;;;;;;;6.10;3.70;;;;;;;;;;5115500;28;20020;-71
2022/12/09 02:55:51;;;;;;;6.10;3.20;;;;;;;;;;5115536;28;20036;-71
2022/12/09 02:58:17;;;;;;;8.43;3.63;;;;;;;;;;5115309;28;20035;-72
2022/12/09 03:00:42;;;;;;;8.97;4.30;;;;;;;;;;5115052;28;20054;-72
2022/12/09 03:03:12;;;;;;;7.30;4.03;;;;;;;;;;5115066;28;20069;-70
2022/12/09 03:06:00;;;;;;;7.57;4.30;;;;;;;;;;5116530;28;20019;-70
2022/12/09 03:08:44;;;;;;;12.87;4.43;;;;;;;;;;5116167;28;20020;-72
2022/12/09 03:11:20;;;;;;;6.57;2.93;;;;;;;;;;5117580;28;20020;-71
2022/12/09 03:14:04;;;;;;;8.13;4.37;;;;;;;;;;5116235;28;20019;-70
2022/12/09 03:16:40;;;;;;;10.20;4.40;;;;;;;;;;5115665;28;20062;-73
2022/12/09 03:19:24;;;;;;;8.73;4.37;;;;;;;;;;5116963;28;20030;-70
2022/12/09 03:21:53;;;;;;;6.10;3.50;;;;;;;;;;5115200;28;20011;-71
2022/12/09 03:24:25;;;;;;;7.67;4.37;;;;;;;;;;5115625;28;20015;-70
2022/12/09 03:26:51;;;;;;;12.57;4.37;;;;;;;;;;5115420;28;20015;-70
2022/12/09 03:29:19;;;;;;;10.17;3.97;;;;;;;;;;5115650;28;20023;-72
2022/12/09 03:31:45;;;;;;;7.53;4.27;;;;;;;;;;5114540;28;20011;-70
2022/12/09 03:34:13;;;;;;;6.97;4.13;;;;;;;;;;5114805;28;20110;-70
2022/12/09 03:36:39;;;;;;;7.53;4.33;;;;;;;;;;5115539;28;20035;-71
2022/12/09 03:39:08;;;;;;;6.37;4.20;;;;;;;;;;5114008;28;20030;-71
2022/12/09 03:41:36;;;;;;;8.07;4.73;;;;;;;;;;5115276;28;20024;-71
2022/12/09 03:44:10;;;;;;;7.53;4.00;;;;;;;;;;5119074;28;20016;-74
2022/12/09 03:46:37;;;;;;;7.83;4.33;;;;;;;;;;5120637;28;20011;-71
2022/12/09 03:49:04;;;;;;;8.37;4.00;;;;;;;;;;5118740;28;20018;-71
2022/12/09 03:51:33;;;;;;;6.73;3.80;;;;;;;;;;5114551;28;20050;-70
2022/12/09 03:54:00;;;;;;;7.63;3.93;;;;;;;;;;5115198;28;20020;-71
2022/12/09 03:56:32;;;;;;;7.50;3.90;;;;;;;;;;5113931;28;20522;-70
2022/12/09 03:59:00;;;;;;;6.13;3.67;;;;;;;;;;5115442;28;20024;-72
2022/12/09 04:01:26;;;;;;;9.10;3.60;;;;;;;;;;5118004;28;20020;-70
2022/12/09 04:03:53;;;;;;;6.53;3.67;;;;;;;;;;5117507;28;20057;-70
2022/12/09 04:06:19;;;;;;;8.77;4.17;;;;;;;;;;5116646;28;20016;-71
2022/12/09 04:08:45;;;;;;;7.43;3.23;;;;;;;;;;5114613;28;20535;-72
2022/12/09 04:11:11;;;;;;;6.10;3.43;;;;;;;;;;5113985;28;20028;-71
2022/12/09 04:13:37;;;;;;;5.70;3.57;;;;;;;;;;5113935;28;20157;-71
2022/12/09 04:16:04;;;;;;;6.03;3.00;;;;;;;;;;5114039;28;20088;-70
2022/12/09 04:18:29;;;;;;;7.53;3.50;;;;;;;;;;5114962;28;20339;-72
2022/12/09 04:20:55;;;;;;;6.53;3.57;;;;;;;;;;5113442;28;20479;-70
2022/12/09 04:23:20;;;;;;;5.73;2.20;;;;;;;;;;5113564;28;20023;-71
2022/12/09 04:25:45;;;;;;;5.60;2.30;;;;;;;;;;5114507;28;20064;-71
2022/12/09 04:28:11;;;;;;;4.33;2.27;;;;;;;;;;5114702;28;20062;-70
2022/12/09 04:30:36;;;;;;;6.40;2.90;;;;;;;;;;5112785;28;20050;-72
2022/12/09 04:33:02;;;;;;;5.80;2.30;;;;;;;;;;5113255;28;20015;-71
2022/12/09 04:35:27;;;;;;;5.77;2.23;;;;;;;;;;5113003;28;20107;-71
2022/12/09 04:37:53;;;;;;;4.20;2.00;;;;;;;;;;5114414;28;20360;-71
2022/12/09 04:40:18;;;;;;;4.17;1.87;;;;;;;;;;5113254;28;20026;-70
2022/12/09 04:42:44;;;;;;;3.67;1.87;;;;;;;;;;5112892;28;20432;-73
2022/12/09 04:45:09;;;;;;;4.83;1.80;;;;;;;;;;5112410;28;20365;-72
2022/12/09 04:47:35;;;;;;;4.17;1.73;;;;;;;;;;5113422;28;20485;-72
2022/12/09 04:50:00;;;;;;;4.00;2.00;;;;;;;;;;5118305;28;20019;-71
2022/12/09 04:52:25;;;;;;;3.93;2.10;;;;;;;;;;5118295;28;20102;-71
2022/12/09 04:54:51;;;;;;;2.60;1.63;;;;;;;;;;5118278;28;20019;-74
2022/12/09 04:57:17;;;;;;;3.73;1.50;;;;;;;;;;5113165;28;20031;-71
2022/12/09 04:59:42;;;;;;;4.93;1.73;;;;;;;;;;5113325;28;20016;-72
2022/12/09 05:02:07;;;;;;;3.23;1.93;;;;;;;;;;5113202;28;20028;-71
2022/12/09 05:04:33;;;;;;;2.43;1.80;;;;;;;;;;5113165;28;20059;-72
2022/12/09 05:06:59;;;;;;;4.80;1.57;;;;;;;;;;5113908;28;20015;-72
2022/12/09 05:09:25;;;;;;;3.73;1.67;;;;;;;;;;5112781;28;20485;-74
2022/12/09 05:11:50;;;;;;;2.67;1.70;;;;;;;;;;5113689;28;20020;-72
2022/12/09 05:14:16;;;;;;;4.00;1.70;;;;;;;;;;5114036;28;20012;-71
2022/12/09 05:16:42;;;;;;;2.93;1.63;;;;;;;;;;5113727;28;20375;-72
2022/12/09 05:19:07;;;;;;;3.80;1.90;;;;;;;;;;5112617;28;20117;-72
2022/12/09 05:21:32;;;;;;;2.70;2.10;;;;;;;;;;5114168;28;20467;-72
2022/12/09 05:24:00;;;;;;;6.27;2.50;;;;;;;;;;5113941;28;20020;-72
2022/12/09 05:26:25;;;;;;;2.80;1.50;;;;;;;;;;5113111;28;20182;-73
2022/12/09 05:28:51;;;;;;;5.07;1.70;;;;;;;;;;5112477;28;20051;-72
2022/12/09 05:31:18;;;;;;;4.03;2.03;;;;;;;;;;5113214;28;20048;-73
2022/12/09 05:33:44;;;;;;;6.03;1.83;;;;;;;;;;5112176;28;20031;-72
2022/12/09 05:36:10;;;;;;;5.47;2.40;;;;;;;;;;5113246;28;20028;-72
2022/12/09 05:38:35;;;;;;;5.73;3.27;;;;;;;;;;5111781;28;20106;-72
2022/12/09 05:41:01;;;;;;;21.80;11.70;;;;;;;;;;5111983;28;20115;-70
2022/12/09 05:43:26;;;;;;;15.13;7.60;;;;;;;;;;5112752;28;20026;-71
2022/12/09 05:45:52;;;;;;;18.70;10.40;;;;;;;;;;5112866;28;20023;-70
2022/12/09 05:48:18;;;;;;;19.73;10.53;;;;;;;;;;5112541;28;20023;-74
2022/12/09 05:50:44;;;;;;;16.13;9.43;;;;;;;;;;5112635;28;20016;-73
2022/12/09 05:53:09;;;;;;;14.43;9.33;;;;;;;;;;5112455;28;20019;-71
2022/12/09 05:55:38;;;;;;;17.93;9.53;;;;;;;;;;5114067;28;20086;-72
2022/12/09 05:58:04;;;;;;;17.53;10.50;;;;;;;;;;5112352;28;20024;-71
2022/12/09 06:00:30;;;;;;;16.97;9.43;;;;;;;;;;5113611;28;20034;-72
2022/12/09 06:02:55;;;;;;;22.80;12.43;;;;;;;;;;5113113;28;20382;-71
2022/12/09 06:05:20;;;;;;;25.43;14.40;;;;;;;;;;5113869;28;20085;-71
2022/12/09 06:07:46;;;;;;;26.43;13.87;;;;;;;;;;5115032;28;20027;-74
2022/12/09 06:10:11;;;;;;;19.80;11.13;;;;;;;;;;5115681;28;20028;-72
2022/12/09 06:12:36;;;;;;;21.17;12.87;;;;;;;;;;5116972;28;20441;-73
2022/12/09 06:15:02;;;;;;;15.03;8.67;;;;;;;;;;5115966;28;20020;-72
2022/12/09 06:17:27;;;;;;;9.80;5.93;;;;;;;;;;5117439;28;20375;-72
2022/12/09 06:19:53;;;;;;;9.73;5.47;;;;;;;;;;5117060;28;20102;-72
2022/12/09 06:22:18;;;;;;;8.77;5.40;;;;;;;;;;5116169;28;20102;-73
2022/12/09 06:24:43;;;;;;;6.90;4.57;;;;;;;;;;5118911;28;20072;-75
2022/12/09 06:27:09;;;;;;;7.13;4.00;;;;;;;;;;5117829;28;20438;-74
2022/12/09 06:29:34;;;;;;;5.23;3.13;;;;;;;;;;5117746;28;20051;-71
2022/12/09 06:32:00;;;;;;;4.67;3.07;;;;;;;;;;5117520;28;20042;-72
2022/12/09 06:34:26;;;;;;;6.37;3.17;;;;;;;;;;5115518;28;20459;-73
2022/12/09 06:36:54;;;;;;;5.63;3.00;;;;;;;;;;5116360;28;20055;-74
2022/12/09 06:39:19;;;;;;;5.90;2.63;;;;;;;;;;5118222;28;20016;-74
2022/12/09 06:41:45;;;;;;;4.57;2.33;;;;;;;;;;5119637;28;20111;-74
2022/12/09 06:44:11;;;;;;;5.10;2.10;;;;;;;;;;5115640;28;20383;-74
2022/12/09 06:46:37;;;;;;;4.90;2.30;;;;;;;;;;5115777;28;20015;-73
2022/12/09 06:49:02;;;;;;;4.47;2.73;;;;;;;;;;5115071;28;20016;-73
2022/12/09 06:51:27;;;;;;;4.93;3.57;;;;;;;;;;5114647;28;20023;-73
2022/12/09 06:53:53;;;;;;;5.03;2.80;;;;;;;;;;5116560;28;20119;-73
2022/12/09 06:56:19;;;;;;;6.00;3.70;;;;;;;;;;5116069;28;20433;-75
2022/12/09 06:58:45;;;;;;;5.73;3.10;;;;;;;;;;5115294;28;20019;-74
2022/12/09 07:01:14;;;;;;;6.03;3.23;;;;;;;;;;5115664;28;20031;-74
2022/12/09 07:03:44;;;;;;;5.03;3.10;;;;;;;;;;5115467;28;20073;-74
2022/12/09 07:06:20;;;;;;;3.97;2.60;;;;;;;;;;5116276;28;20372;-73
2022/12/09 07:08:45;;;;;;;6.67;3.13;;;;;;;;;;5114707;28;20070;-74
2022/12/09 07:11:11;;;;;;;6.77;3.60;;;;;;;;;;5114654;28;20446;-74
2022/12/09 07:13:37;;;;;;;4.60;2.87;;;;;;;;;;5114314;28;20030;-74
2022/12/09 07:16:03;;;;;;;4.83;2.83;;;;;;;;;;5116071;28;20479;-75
2022/12/09 07:18:28;;;;;;;5.93;2.70;;;;;;;;;;5119316;28;20032;-80
2022/12/09 07:20:53;;;;;;;8.53;3.03;;;;;;;;;;5115227;28;20461;-74
2022/12/09 07:23:19;;;;;;;7.10;2.70;;;;;;;;;;5116118;28;20012;-74
2022/12/09 07:25:53;;;;;;;4.23;2.70;;;;;;;;;;5113779;28;20072;-74
2022/12/09 07:28:18;;;;;;;5.57;2.95;;;;;;;;;;5113607;28;20020;-75
2022/12/09 07:30:45;;;;;;;7.93;3.53;;;;;;;;;;5114957;27;20055;-75
2022/12/09 07:33:10;;;;;;;5.30;2.30;;;;;;;;;;5113304;28;20027;-75
2022/12/09 07:35:37;;;;;;;6.40;2.73;;;;;;;;;;5114337;28;20023;-75
2022/12/09 07:38:02;;;;;;;5.20;2.70;;;;;;;;;;5114109;28;20023;-75
2022/12/09 07:40:28;;;;;;;7.27;2.87;;;;;;;;;;5115030;28;20016;-73
2022/12/09 07:42:53;;;;;;;3.90;2.63;;;;;;;;;;5114884;28;20026;-73
2022/12/09 07:45:19;;;;;;;4.90;3.03;;;;;;;;;;5114597;28;20094;-75
2022/12/09 07:47:44;;;;;;;8.63;3.40;;;;;;;;;;5114865;28;20508;-76
2022/12/09 07:50:10;;;;;;;7.17;3.70;;;;;;;;;;5115546;28;20095;-74
2022/12/09 07:52:35;;;;;;;8.40;4.20;;;;;;;;;;5114281;28;20157;-75
2022/12/09 07:55:01;;;;;;;20.63;5.67;;;;;;;;;;5113416;28;20062;-76
2022/12/09 07:57:27;;;;;;;7.13;4.07;;;;;;;;;;5112285;28;20435;-75
2022/12/09 07:59:53;;;;;;;8.50;4.17;;;;;;;;;;5114528;28;20478;-75
2022/12/09 08:02:19;;;;;;;5.03;2.70;;;;;;;;;;5113315;28;20019;-75
2022/12/09 08:04:44;;;;;;;15.23;4.17;;;;;;;;;;5114181;28;20463;-75
2022/12/09 08:07:09;;;;;;;7.07;3.27;;;;;;;;;;5112808;28;20431;-75
2022/12/09 08:09:35;;;;;;;7.43;3.70;;;;;;;;;;5113689;28;20019;-76
2022/12/09 08:12:00;;;;;;;10.20;3.40;;;;;;;;;;5112710;28;20145;-76
2022/12/09 08:14:27;;;;;;;11.67;2.97;;;;;;;;;;5113918;28;20064;-76
2022/12/09 08:16:53;;;;;;;5.87;2.87;;;;;;;;;;5113892;28;20494;-76
2022/12/09 08:19:18;;;;;;;8.70;3.60;;;;;;;;;;5113364;28;20023;-78
2022/12/09 08:21:44;;;;;;;8.13;3.53;;;;;;;;;;5114097;28;20406;-76
2022/12/09 08:24:10;;;;;;;7.47;2.47;;;;;;;;;;5113454;28;20057;-76
2022/12/09 08:26:37;;;;;;;7.93;2.40;;;;;;;;;;5115065;28;20061;-75
2022/12/09 08:29:06;;;;;;;4.57;2.97;;;;;;;;;;5115421;28;20090;-75
2022/12/09 08:31:32;;;;;;;9.00;2.37;;;;;;;;;;5113400;28;20048;-75
2022/12/09 08:33:57;;;;;;;4.87;2.27;;;;;;;;;;5113598;28;20523;-76
2022/12/09 08:36:25;;;;;;;4.53;2.40;;;;;;;;;;5115112;28;20024;-75
2022/12/09 08:38:50;;;;;;;4.70;1.70;;;;;;;;;;5113508;28;20020;-76
2022/12/09 08:41:21;;;;;;;5.63;2.20;;;;;;;;;;5112834;28;20502;-77
2022/12/09 08:43:47;;;;;;;7.33;2.40;;;;;;;;;;5115090;28;20068;-76
2022/12/09 08:46:13;;;;;;;8.10;2.53;;;;;;;;;;5115153;28;20031;-77
2022/12/09 08:48:40;;;;;;;7.53;2.70;;;;;;;;;;5115463;28;20062;-77
2022/12/09 08:51:07;;;;;;;5.87;2.73;;;;;;;;;;5115180;28;20057;-75
2022/12/09 08:53:32;;;;;;;4.07;2.40;;;;;;;;;;5114977;28;20019;-76
2022/12/09 08:55:58;;;;;;;3.33;2.10;;;;;;;;;;5115617;28;20490;-76
2022/12/09 08:58:23;;;;;;;4.50;2.50;;;;;;;;;;5115874;28;20020;-77
2022/12/09 09:00:49;;;;;;;5.07;3.00;;;;;;;;;;5116017;28;20052;-78
2022/12/09 09:03:14;;;;;;;7.70;3.10;;;;;;;;;;5114296;28;20438;-76
2022/12/09 09:05:40;;;;;;;12.50;3.47;;;;;;;;;;5116235;28;20467;-76
2022/12/09 09:08:05;;;;;;;5.53;2.17;;;;;;;;;;5113844;28;20027;-75
2022/12/09 09:10:31;;;;;;;5.60;2.40;;;;;;;;;;5114143;28;20018;-74
2022/12/09 09:12:56;;;;;;;5.13;3.40;;;;;;;;;;5113546;28;20035;-76
2022/12/09 09:15:22;;;;;;;9.90;4.13;;;;;;;;;;5113449;28;20077;-77
2022/12/09 09:17:50;;;;;;;7.10;3.50;;;;;;;;;;5113107;28;20027;-76
2022/12/09 09:20:16;;;;;;;9.97;3.17;;;;;;;;;;5113165;28;20093;-77
2022/12/09 09:22:41;;;;;;;6.47;3.50;;;;;;;;;;5113522;28;20015;-77
2022/12/09 09:25:07;;;;;;;6.80;3.45;;;;;;;;;;5112206;28;20051;-77
2022/12/09 09:27:33;;;;;;;6.83;2.97;;;;;;;;;;5112650;28;20027;-76
2022/12/09 09:29:59;;;;;;;5.17;2.80;;;;;;;;;;5112772;28;20403;-75
2022/12/09 09:32:24;;;;;;;5.50;4.13;;;;;;;;;;5114272;28;20027;-76
2022/12/09 09:34:51;;;;;;;4.93;3.10;;;;;;;;;;5112298;28;20022;-77
2022/12/09 09:37:17;;;;;;;5.67;2.80;;;;;;;;;;5112430;28;20548;-75
2022/12/09 09:39:43;;;;;;;4.23;3.03;;;;;;;;;;5112986;28;20382;-76
2022/12/09 09:42:23;;;;;;;6.77;2.70;;;;;;;;;;5112038;28;20012;-77
2022/12/09 09:44:53;;;;;;;7.47;3.20;;;;;;;;;;5112001;28;20060;-76
2022/12/09 09:47:24;;;;;;;4.70;3.07;;;;;;;;;;5113707;28;20015;-77
2022/12/09 09:49:56;;;;;;;5.00;3.13;;;;;;;;;;5114305;28;20035;-76
2022/12/09 09:52:23;;;;;;;7.93;3.03;;;;;;;;;;5112599;28;20024;-77
2022/12/09 09:54:48;;;;;;;5.07;2.60;;;;;;;;;;5113714;28;20080;-77
2022/12/09 09:57:16;;;;;;;9.17;3.43;;;;;;;;;;5111923;28;20479;-77
2022/12/09 09:59:52;;;;;;;6.03;3.00;;;;;;;;;;5111891;28;20022;-77
2022/12/09 10:02:26;;;;;;;5.03;2.80;;;;;;;;;;5111820;28;20522;-76
2022/12/09 10:05:06;;;;;;;8.38;3.63;;;;;;;;;;5112232;28;20019;-76
2022/12/09 10:07:41;;;;;;;8.23;2.88;;;;;;;;;;5111777;28;20059;-76
2022/12/09 10:10:23;;;;;;;5.63;3.10;;;;;;;;;;5111345;28;20084;-77
2022/12/09 10:13:08;;;;;;;8.88;3.85;;;;;;;;;;5111293;28;20111;-77
2022/12/09 10:15:40;;;;;;;5.45;2.97;;;;;;;;;;5111422;28;20080;-81
2022/12/09 10:18:22;;;;;;;6.47;3.05;;;;;;;;;;5115035;28;20027;-77
2022/12/09 10:20:47;;;;;;;6.72;4.13;;;;;;;;;;5116044;28;20460;-77
2022/12/09 10:23:14;;;;;;;11.00;5.30;;;;;;;;;;5112608;28;20113;-76
2022/12/09 10:25:44;;;;;;;5.87;3.70;;;;;;;;;;5111903;28;20020;-76
2022/12/09 10:28:17;;;;;;;6.77;4.20;;;;;;;;;;5111361;28;20047;-77
2022/12/09 10:30:43;;;;;;;6.07;3.83;;;;;;;;;;5111004;28;20475;-77
2022/12/09 10:33:12;;;;;;;7.60;3.50;;;;;;;;;;5114277;28;20020;-76
2022/12/09 10:35:37;;;;;;;8.30;3.87;;;;;;;;;;5113783;28;20062;-77
2022/12/09 10:38:10;;;;;;;6.10;4.17;;;;;;;;;;5112243;28;20395;-77
2022/12/09 10:40:39;;;;;;;14.93;4.63;;;;;;;;;;5112635;28;20016;-76
2022/12/09 10:46:09;;;;;;;6.87;3.70;;;;;;;;;;5115147;28;20546;-78
2022/12/09 10:48:36;;;;;;;5.67;3.20;;;;;;;;;;5113886;28;20023;-76
2022/12/09 10:51:11;;;;;;;6.27;3.93;;;;;;;;;;5111950;28;20395;-76
2022/12/09 10:53:42;;;;;;;5.30;3.58;;;;;;;;;;5113550;28;20107;-77
2022/12/09 10:56:07;;;;;;;7.67;3.70;;;;;;;;;;5117186;28;20046;-77
2022/12/09 10:58:33;;;;;;;6.47;3.43;;;;;;;;;;5114879;28;20020;-77
2022/12/09 11:01:10;;;;;;;7.37;4.20;;;;;;;;;;5114298;28;20072;-78
2022/12/09 11:03:54;;;;;;;5.87;3.60;;;;;;;;;;5116281;28;20054;-76
2022/12/09 11:06:28;;;;;;;9.87;4.77;;;;;;;;;;5114179;28;20020;-77
2022/12/09 11:08:58;;;;;;;6.90;3.70;;;;;;;;;;5114112;28;20065;-77
2022/12/09 11:11:42;;;;;;;7.33;4.10;;;;;;;;;;5114934;28;20513;-77
2022/12/09 11:14:27;;;;;;;7.23;4.33;;;;;;;;;;5113610;28;20039;-76
2022/12/09 11:16:56;;;;;;;7.30;3.97;;;;;;;;;;5113589;28;20094;-75
2022/12/09 11:19:35;;;;;;;7.43;3.30;;;;;;;;;;5113853;28;20027;-76
2022/12/09 11:22:13;;;;;;;5.80;3.27;;;;;;;;;;5117254;28;20448;-76
2022/12/09 11:24:39;;;;;;;7.27;4.00;;;;;;;;;;5121147;28;20486;-77
2022/12/09 11:27:24;;;;;;;7.03;3.60;;;;;;;;;;5115571;28;20016;-78
2022/12/09 11:30:22;;;;;;;9.80;4.25;;;;;;;;;;5113833;28;20047;-78
2022/12/09 11:33:06;;;;;;;14.50;5.70;;;;;;;;;;5090637;28;20046;-77
2022/12/09 11:35:52;;;;;;;8.07;4.33;;;;;;;;;;5112980;28;20019;-76
2022/12/09 11:38:17;;;;;;;;;;;;;;;;;;5115183;28;20032;-76
2022/12/09 11:40:43;;;;;;;8.07;3.73;;;;;;;;;;5114386;28;19911;-75
2022/12/09 11:43:09;;;;;;;6.13;3.60;;;;;;;;;;5113418;28;20027;-77
2022/12/09 11:45:36;;;;;;;6.57;3.40;;;;;;;;;;5113326;28;20151;-76
2022/12/09 11:48:04;;;;;;;10.90;3.50;;;;;;;;;;5114674;28;20102;-76
2022/12/09 11:50:31;;;;;;;6.83;3.53;;;;;;;;;;5114890;28;20012;-76
2022/12/09 11:53:13;;;;;;;11.15;4.10;;;;;;;;;;5113551;28;20015;-77
2022/12/09 11:55:46;;;;;;;9.90;4.00;;;;;;;;;;5114484;28;20069;-76
2022/12/09 11:58:13;;;;;;;8.50;4.10;;;;;;;;;;5114599;28;20020;-74
2022/12/09 12:00:42;;;;;;;7.60;4.20;;;;;;;;;;5113913;28;20051;-75
2022/12/09 12:03:11;;;;;;;7.97;3.73;;;;;;;;;;5112825;28;20016;-76
2022/12/09 12:05:39;;;;;;;7.40;3.97;;;;;;;;;;5112224;28;20016;-75
2022/12/09 12:08:24;;;;;;;7.53;4.30;;;;;;;;;;5112662;28;20030;-76
2022/12/09 12:10:55;;;;;;;8.80;4.27;;;;;;;;;;5113234;28;20043;-75
2022/12/09 12:13:38;;;;;;;10.47;4.50;;;;;;;;;;5112783;28;20016;-75
2022/12/09 12:16:19;;;;;;;10.33;4.87;;;;;;;;;;5112764;28;20122;-75
2022/12/09 12:18:47;;;;;;;7.27;3.90;;;;;;;;;;5113348;28;20035;-76
2022/12/09 12:21:20;;;;;;;7.73;3.70;;;;;;;;;;5112853;28;20016;-75
2022/12/09 12:23:49;;;;;;;6.93;4.07;;;;;;;;;;5113682;28;20027;-76
2022/12/09 12:26:20;;;;;;;9.37;3.53;;;;;;;;;;5114729;28;20023;-75
2022/12/09 12:29:04;;;;;;;8.17;3.80;;;;;;;;;;5116359;28;20080;-76
2022/12/09 12:31:29;;;;;;;8.43;4.10;;;;;;;;;;5114609;28;20044;-76
2022/12/09 12:33:57;;;;;;;9.07;4.37;;;;;;;;;;5112666;28;20042;-76
2022/12/09 12:36:30;;;;;;;6.47;3.43;;;;;;;;;;5112635;28;20045;-76
2022/12/09 12:39:12;;;;;;;9.90;3.77;;;;;;;;;;5113053;28;20027;-77
2022/12/09 12:41:43;;;;;;;9.30;4.53;;;;;;;;;;5114822;28;20023;-76
2022/12/09 12:47:08;;;;;;;6.87;2.93;;;;;;;;;;5113804;28;20034;-76
2022/12/09 12:49:52;;;;;;;7.40;3.63;;;;;;;;;;5112530;28;20506;-76
2022/12/09 12:52:20;;;;;;;5.77;3.30;;;;;;;;;;5112043;28;20015;-75
2022/12/09 12:54:51;;;;;;;6.53;3.30;;;;;;;;;;5114019;28;20011;-75
2022/12/09 12:57:36;;;;;;;5.90;2.93;;;;;;;;;;5113521;28;20100;-76
2022/12/09 13:00:13;;;;;;;8.40;3.33;;;;;;;;;;5112751;28;20115;-76
2022/12/09 13:02:57;;;;;;;7.63;4.80;;;;;;;;;;5112236;28;20034;-76
2022/12/09 13:05:24;;;;;;;5.90;3.47;;;;;;;;;;5112437;28;20020;-75
2022/12/09 13:07:55;;;;;;;4.87;3.07;;;;;;;;;;5112269;28;20012;-76
2022/12/09 13:10:23;;;;;;;9.87;3.93;;;;;;;;;;5112819;28;20095;-76
2022/12/09 13:12:55;;;;;;;6.97;4.03;;;;;;;;;;5112329;28;20027;-77
2022/12/09 13:15:32;;;;;;;10.00;4.17;;;;;;;;;;5111068;28;20065;-76
2022/12/09 13:18:03;;;;;;;12.80;4.80;;;;;;;;;;5112148;28;20520;-75
2022/12/09 13:20:34;;;;;;;11.17;4.93;;;;;;;;;;5112563;28;20043;-75
2022/12/09 13:23:05;;;;;;;9.63;4.50;;;;;;;;;;5114556;28;20019;-76
2022/12/09 13:25:33;;;;;;;11.40;6.03;;;;;;;;;;5112127;28;20019;-75
2022/12/09 13:28:12;;;;;;;7.40;4.30;;;;;;;;;;5113177;28;20019;-76
2022/12/09 13:30:42;;;;;;;7.87;4.73;;;;;;;;;;5111519;28;20056;-75
2022/12/09 13:33:14;;;;;;;10.80;4.70;;;;;;;;;;5111820;28;20015;-75
2022/12/09 13:35:58;;;;;;;12.33;5.87;;;;;;;;;;5111698;28;20015;-74
2022/12/09 13:38:25;;;;;;;9.60;4.70;;;;;;;;;;5111647;28;20073;-75
2022/12/09 13:40:50;;;;;;;8.17;4.57;;;;;;;;;;5112502;28;20026;-76
2022/12/09 13:43:21;;;;;;;5.57;3.77;;;;;;;;;;5111303;28;20094;-75
2022/12/09 13:45:51;;;;;;;6.37;3.87;;;;;;;;;;5111051;28;20026;-75
2022/12/09 13:48:17;;;;;;;8.87;3.83;;;;;;;;;;5111774;28;20020;-75
2022/12/09 13:50:56;;;;;;;8.27;4.17;;;;;;;;;;5112653;28;20102;-75
2022/12/09 13:53:34;;;;;;;5.87;3.63;;;;;;;;;;5111498;28;20429;-76
2022/12/09 13:56:00;;;;;;;5.50;3.53;;;;;;;;;;5111487;28;20140;-74
2022/12/09 13:58:45;;;;;;;7.60;3.70;;;;;;;;;;5111274;28;20031;-73
2022/12/09 14:01:14;;;;;;;8.90;3.33;;;;;;;;;;5111639;28;20019;-75
2022/12/09 14:03:51;;;;;;;9.40;3.47;;;;;;;;;;5110997;28;20020;-74
2022/12/09 14:06:36;;;;;;;8.20;3.10;;;;;;;;;;5111199;28;20024;-76
2022/12/09 14:09:02;;;;;;;;;;;;;;;;;;5110688;28;20023;-76
2022/12/09 14:11:36;;;;;;;9.50;2.77;;;;;;;;;;5112249;28;19904;-75
2022/12/09 14:14:20;;;;;;;5.75;2.67;;;;;;;;;;5112341;28;20032;-75
2022/12/09 14:16:47;;;;;;;5.20;2.20;;;;;;;;;;5111456;28;20539;-75
2022/12/09 14:19:24;;;;;;;3.70;2.47;;;;;;;;;;5112497;28;20027;-76
2022/12/09 14:22:14;;;;;;;7.50;3.03;;;;;;;;;;5111441;28;20024;-75
2022/12/09 14:24:41;;;;;;;5.43;2.27;;;;;;;;;;5111499;28;20118;-74
2022/12/09 14:27:08;;;;;;;7.40;2.60;;;;;;;;;;5111861;28;20023;-73
2022/12/09 14:29:47;;;;;;;4.90;2.03;;;;;;;;;;5116086;28;20023;-75
2022/12/09 14:32:30;;;;;;;3.90;2.00;;;;;;;;;;5114779;28;20020;-75
2022/12/09 14:34:58;;;;;;;5.60;2.30;;;;;;;;;;5114758;28;20023;-74
2022/12/09 14:37:26;;;;;;;5.47;2.90;;;;;;;;;;5116438;28;20055;-75
2022/12/09 14:39:59;;;;;;;4.07;1.80;;;;;;;;;;5115282;28;20032;-73
2022/12/09 14:42:49;;;;;;;4.83;2.37;;;;;;;;;;5116630;28;20019;-73
2022/12/09 14:45:29;;;;;;;7.73;1.97;;;;;;;;;;5117825;28;20023;-75
2022/12/09 14:47:57;;;;;;;3.40;2.00;;;;;;;;;;5118888;28;20030;-75
2022/12/09 14:50:26;;;;;;;4.10;2.03;;;;;;;;;;5117333;28;20027;-75
2022/12/09 14:53:00;;;;;;;6.33;2.03;;;;;;;;;;5115144;28;20019;-75
2022/12/09 14:55:29;;;;;;;4.57;1.63;;;;;;;;;;5116847;28;20498;-75
2022/12/09 14:57:56;;;;;;;8.37;2.37;;;;;;;;;;5114743;28;20160;-73